Airfield :
LOGIN :

Register | Disclaimer

   EN    FR    IT 

 










Legend :    VFR   Marginal VFR   IFR   Intensive IFR   Very Intensive IFR
Visi :
Ceiling :
>= 8 km
>= 3000ft
5 to 8 km
1000 to 3000 ft
1500m to 5 km
500 to 1000 ft
800 to 1500m
200 to 500 ft
< 800m
< 200 ft
Symbols :   Thunderstorms  Fog  Heavy snow  Heavy precipitations  Wind > 20 kt
SIGMETs :     Misc.  Thunderstorms  Icing  Turbulence  Mountain Waves  Volcanic Ashes







- Airport Elevation : 375 ft
- IATA code : MST


EHBK - Maastricht Aachen

CURRENT METAR :
  • 201455Z AUTO 05004KT 9999 NSC 14/06 Q1030 NOSIG

EXPIRED METARs :
  • 201425Z AUTO 04005KT 350V110 9999 NSC 14/07 Q1030 NOSIG
  • 201355Z AUTO 31005KT 280V350 9999 NSC 14/07 Q1030 NOSIG
  • 201325Z AUTO 32004KT 260V360 9999 NSC 14/07 Q1030 NOSIG
  • 201255Z AUTO 33004KT 280V020 9999 NSC 13/08 Q1030 NOSIG
  • 201225Z AUTO 31003KT 260V040 9999 NSC 13/08 Q1031 NOSIG

TAF TAF EHBK
Valid from the 20 at 12:00 until the 21 at 18:00 UTC


201116Z 2012/2118 09004KT CAVOK
BECMG 2022/2101 5000 BR
TEMPO 2023/2108 2000 BCFG
PROB40 2100/2107 0400 FG
BECMG 2107/2110 7000 NSW
BECMG 2109/2112 CAVOK
No reported NOTAMs for that airfield.



MET'MAP, your aeronautical weather chart ! - Copyright ORBIFLY December 2007 - Disclaimer

ORBIFLY MET'MAP TEAM :

Programming & Development : Alexandra Zaïnal
Concept & Development : Baudouin d'Aumeries
Co-Development & Prog : Marc-Olivier Méhu
Technical & hardware support : Manuel Goepfert

Contact : metmap@orbifly.com




SOURCES & CREDITS :

   NOAA